Aberdeen, Washington
Current Conditions -  °F | °C
As of 12:53 PM on Friday 24 Oct 2014 (Local Time) from KHQM Reporting Station
Clear Clear  
Wind Chill: 54°   Ceiling: Unl
Heat Index: 54°   Visibility: 7mi
Dew Point: 50°   Wind: 10mph
Humidity: 86%   Direction: 60°ENE
Pressure: 29.95"   Gusts: NA
Location:  46.98°N, 123.81°W
Report Text: KHQM 241953Z AUTO 06009KT 7SM CLR 12/10 A2995 RMK AO2 SLP146 T01220100
Loading
Personal Weather Stations






























Interactive Weather Map New forecast layout! Learn more

10-Day Weather Forecast

Advertisements
Track Severe Weather on mobile